Time;durP1;ratioP1;P1;durP2;ratioP2;P2;SDS_P1;SDS_P2;PMS_P1;PMS_P2;Temp;Humidity;BMP_temperature;BMP_pressure;BME280_temperature;BME280_humidity;BME280_pressure;Samples;Min_cycle;Max_cycle;Signal;HPM_P1;HPM_P2
2023/08/05 00:00:06;;;;;;;13.63;12.57;;;;;;;25.62;53.88;92391.94;4991603;28;20276;-74
2023/08/05 00:02:31;;;;;;;13.35;12.25;;;;;;;25.47;54.73;92382.34;5005033;28;20196;-75
2023/08/05 00:04:57;;;;;;;13.73;12.65;;;;;;;25.53;54.19;92385.41;4993441;28;20177;-75
2023/08/05 00:07:22;;;;;;;13.23;12.00;;;;;;;25.59;54.42;92382.00;5007251;28;20219;-75
2023/08/05 00:09:47;;;;;;;13.80;12.40;;;;;;;25.61;54.16;92379.72;5002677;28;20318;-73
2023/08/05 00:12:13;;;;;;;13.75;12.65;;;;;;;25.55;54.36;92378.56;4996309;28;20291;-74
2023/08/05 00:14:38;;;;;;;14.60;13.45;;;;;;;25.52;54.28;92373.97;5010127;28;20198;-74
2023/08/05 00:17:04;;;;;;;14.05;12.63;;;;;;;25.60;54.24;92367.50;5000838;28;20246;-75
2023/08/05 00:19:29;;;;;;;14.10;12.90;;;;;;;25.42;54.71;92369.31;5007178;28;20194;-75
2023/08/05 00:21:55;;;;;;;12.77;11.68;;;;;;;25.51;54.51;92360.97;5004700;28;20219;-75
2023/08/05 00:24:20;;;;;;;13.00;12.00;;;;;;;25.42;54.22;92355.97;5006116;28;20218;-75
2023/08/05 00:26:45;;;;;;;12.68;11.57;;;;;;;25.35;54.68;92361.28;5007854;28;20299;-74
2023/08/05 00:29:11;;;;;;;12.57;11.43;;;;;;;25.31;55.15;92363.13;5010051;28;20199;-74
2023/08/05 00:31:36;;;;;;;12.95;11.85;;;;;;;25.24;55.37;92363.88;4992776;28;20238;-75
2023/08/05 00:34:02;;;;;;;12.35;10.90;;;;;;;25.25;55.19;92364.63;5004029;28;20305;-75
2023/08/05 00:36:27;;;;;;;13.13;12.02;;;;;;;25.14;55.98;92347.78;5009726;28;20222;-75
2023/08/05 00:38:52;;;;;;;14.85;12.55;;;;;;;25.15;55.96;92358.09;5000720;28;20721;-74
2023/08/05 00:41:18;;;;;;;12.35;11.45;;;;;;;24.90;56.41;92343.09;5008187;28;20221;-75
2023/08/05 00:43:44;;;;;;;13.38;12.07;;;;;;;24.97;56.24;92359.13;5008144;28;20202;-75
2023/08/05 00:46:11;;;;;;;13.20;12.10;;;;;;;24.95;56.34;92338.13;4996701;28;20226;-75
2023/08/05 00:48:36;;;;;;;12.45;11.40;;;;;;;24.93;56.28;92331.66;5009659;28;20187;-75
2023/08/05 00:51:04;;;;;;;13.27;12.18;;;;;;;24.95;56.76;92351.50;5006219;28;20230;-74
2023/08/05 00:53:32;;;;;;;12.93;11.93;;;;;;;24.96;56.44;92342.38;5000333;28;20175;-75
2023/08/05 00:55:57;;;;;;;12.25;11.23;;;;;;;24.79;56.90;92328.91;5007359;28;20237;-75
2023/08/05 00:58:23;;;;;;;12.65;11.65;;;;;;;24.91;56.42;92329.34;4994539;28;20191;-75
2023/08/05 01:00:49;;;;;;;13.23;12.18;;;;;;;24.93;56.23;92337.78;5008636;28;20214;-74
2023/08/05 01:03:15;;;;;;;12.48;11.48;;;;;;;24.88;56.54;92340.00;5009237;28;20207;-75
2023/08/05 01:05:42;;;;;;;12.73;11.63;;;;;;;24.92;56.78;92335.44;4995419;28;20219;-76
2023/08/05 01:08:09;;;;;;;13.63;12.45;;;;;;;24.80;56.45;92327.75;5003143;28;20191;-74
2023/08/05 01:10:35;;;;;;;14.80;13.50;;;;;;;24.81;56.55;92314.03;5010417;28;20280;-74
2023/08/05 01:13:01;;;;;;;13.30;12.30;;;;;;;24.65;56.96;92321.53;5006591;28;20210;-75
2023/08/05 01:15:26;;;;;;;14.45;12.95;;;;;;;24.80;56.94;92327.75;5012673;28;20227;-75
2023/08/05 01:17:54;;;;;;;13.25;12.05;;;;;;;24.63;57.67;92326.47;5007877;28;20207;-75
2023/08/05 01:20:26;;;;;;;12.85;11.65;;;;;;;24.75;56.62;92309.41;5001902;28;20237;-74
2023/08/05 01:22:55;;;;;;;13.40;12.27;;;;;;;24.67;57.51;92313.19;5012836;28;20191;-75
2023/08/05 01:25:31;;;;;;;12.95;11.95;;;;;;;24.60;57.67;92321.09;5012866;28;20172;-75
2023/08/05 01:27:57;;;;;;;15.60;12.23;;;;;;;;;;5000304;28;20194;-75
2023/08/05 01:30:24;;;;;;;12.63;11.63;;;;;;;24.67;57.41;92305.94;5003648;28;20253;-75
2023/08/05 01:32:50;;;;;;;14.10;12.85;;;;;;;24.49;58.28;92301.59;5001713;28;20223;-74
2023/08/05 01:35:18;;;;;;;12.77;11.68;;;;;;;24.45;57.96;92298.13;5004585;28;20199;-75
2023/08/05 01:37:43;;;;;;;13.10;11.90;;;;;;;24.42;58.38;92296.97;5012707;28;20229;-74
2023/08/05 01:40:09;;;;;;;13.23;12.00;;;;;;;24.22;57.35;92262.91;5012540;28;20221;-76
2023/08/05 01:42:35;;;;;;;13.23;12.02;;;;;;;24.57;57.81;92303.16;5000735;28;20194;-81
2023/08/05 01:45:00;;;;;;;13.00;11.90;;;;;;;24.56;57.12;92302.38;4997495;28;20195;-82
2023/08/05 01:47:25;;;;;;;13.43;12.32;;;;;;;24.53;56.95;92297.78;5006227;28;20219;-81
2023/08/05 01:49:51;;;;;;;13.40;12.10;;;;;;;24.71;56.50;92300.63;5005949;28;20222;-81
2023/08/05 01:52:16;;;;;;;13.20;12.02;;;;;;;24.59;57.69;92300.91;5000498;28;20231;-81
2023/08/05 01:54:41;;;;;;;12.65;11.65;;;;;;;24.70;56.56;92299.09;4999962;28;20198;-81
2023/08/05 01:57:07;;;;;;;13.82;12.18;;;;;;;24.62;56.52;92292.88;5004850;28;20228;-82
2023/08/05 01:59:32;;;;;;;12.30;11.32;;;;;;;24.59;57.30;92306.25;5012677;28;20197;-83
2023/08/05 02:01:58;;;;;;;13.00;11.90;;;;;;;24.51;57.65;92310.00;4990585;28;20242;-81
2023/08/05 02:04:23;;;;;;;13.52;12.32;;;;;;;24.23;58.21;92304.44;4993334;28;20188;-81
2023/08/05 02:06:48;;;;;;;12.90;11.80;;;;;;;24.38;57.94;92308.75;4992142;28;20231;-82
2023/08/05 02:09:14;;;;;;;15.70;12.60;;;;;;;24.22;58.55;92318.94;4993097;28;20195;-80
2023/08/05 02:11:39;;;;;;;14.80;13.45;;;;;;;24.09;59.05;92309.66;5004609;28;20218;-82
2023/08/05 02:14:04;;;;;;;13.52;12.25;;;;;;;24.05;59.93;92306.22;5011874;28;20222;-81
2023/08/05 02:16:33;;;;;;;13.95;12.73;;;;;;;24.21;59.63;92294.16;5006892;28;20253;-81
2023/08/05 02:18:59;;;;;;;13.48;12.27;;;;;;;24.28;59.71;92307.53;4998930;28;20198;-80
2023/08/05 02:21:24;;;;;;;14.15;13.00;;;;;;;24.00;60.97;92301.97;4983280;28;20228;-81
2023/08/05 02:23:50;;;;;;;15.07;13.60;;;;;;;24.00;61.02;92296.63;4992560;28;20279;-81
2023/08/05 02:26:16;;;;;;;14.13;13.02;;;;;;;23.68;62.02;92301.66;4992256;28;20226;-79
2023/08/05 02:28:41;;;;;;;14.18;13.07;;;;;;;23.54;62.62;92306.84;4985255;28;20187;-79
2023/08/05 02:31:06;;;;;;;13.88;12.75;;;;;;;23.40;63.35;92306.69;4979702;28;20251;-78
2023/08/05 02:33:32;;;;;;;14.70;13.35;;;;;;;23.38;63.36;92308.16;4980231;28;20254;-80
2023/08/05 02:35:58;;;;;;;16.05;14.45;;;;;;;23.36;63.17;92310.44;4993103;28;20234;-80
2023/08/05 02:38:23;;;;;;;14.43;12.95;;;;;;;23.27;63.87;92308.06;5011685;28;20189;-80
2023/08/05 02:40:49;;;;;;;15.00;13.45;;;;;;;23.21;64.31;92298.06;5004783;28;20498;-79
2023/08/05 02:43:14;;;;;;;14.68;13.48;;;;;;;23.15;64.07;92304.84;5011037;28;20190;-80
2023/08/05 02:45:40;;;;;;;15.32;13.93;;;;;;;23.31;64.47;92308.09;5011405;28;20294;-80
2023/08/05 02:48:06;;;;;;;14.88;13.57;;;;;;;23.48;65.63;92316.31;5006127;28;20255;-80
2023/08/05 02:50:31;;;;;;;15.10;13.75;;;;;;;23.52;65.23;92317.09;5011257;28;20291;-80
2023/08/05 02:52:57;;;;;;;15.40;14.00;;;;;;;23.36;65.54;92305.88;5011002;28;20194;-81
2023/08/05 02:55:22;;;;;;;15.43;14.02;;;;;;;23.46;65.25;92310.56;4999474;28;20243;-79
2023/08/05 02:57:47;;;;;;;14.65;13.45;;;;;;;23.25;65.76;92294.31;5010796;28;20648;-80
2023/08/05 03:00:13;;;;;;;15.77;14.25;;;;;;;23.25;66.30;92310.31;5010866;28;20220;-81
2023/08/05 03:02:38;;;;;;;15.48;14.18;;;;;;;23.19;66.41;92301.09;4998653;28;20191;-80
2023/08/05 03:05:04;;;;;;;15.05;13.75;;;;;;;23.10;66.92;92297.94;4998522;28;20191;-80
2023/08/05 03:07:29;;;;;;;15.70;14.10;;;;;;;23.02;67.72;92296.31;4990857;28;20187;-78
2023/08/05 03:09:55;;;;;;;14.80;13.50;;;;;;;22.86;67.94;92295.75;4991852;28;20211;-80
2023/08/05 03:12:20;;;;;;;14.50;13.13;;;;;;;22.89;67.56;92300.34;4989922;28;20234;-81
2023/08/05 03:14:46;;;;;;;15.68;14.38;;;;;;;22.84;68.13;92286.56;4991860;28;20188;-80
2023/08/05 03:17:11;;;;;;;15.73;14.10;;;;;;;22.81;68.07;92295.28;4979638;28;20221;-80
2023/08/05 03:19:36;;;;;;;15.98;14.45;;;;;;;22.89;67.26;92303.00;4985496;28;20341;-80
2023/08/05 03:22:03;;;;;;;15.60;14.27;;;;;;;22.36;68.39;92279.41;4980399;28;20242;-80
2023/08/05 03:24:29;;;;;;;16.00;14.52;;;;;;;22.64;67.59;92303.78;4991407;28;20182;-80
2023/08/05 03:26:54;;;;;;;16.23;14.82;;;;;;;22.63;67.45;92312.91;5003669;28;20224;-80
2023/08/05 03:29:20;;;;;;;15.95;14.57;;;;;;;22.79;67.60;92308.19;4976453;28;20194;-83
2023/08/05 03:31:45;;;;;;;16.17;14.85;;;;;;;22.46;68.14;92290.22;4990806;28;20227;-81
2023/08/05 03:34:10;;;;;;;16.00;14.48;;;;;;;22.76;67.69;92298.25;5004608;28;20227;-80
2023/08/05 03:36:36;;;;;;;17.38;14.93;;;;;;;22.58;68.42;92298.03;4997405;28;20228;-80
2023/08/05 03:39:02;;;;;;;16.00;14.45;;;;;;;22.86;67.49;92306.41;4991099;28;20200;-81
2023/08/05 03:41:27;;;;;;;14.77;13.52;;;;;;;22.84;67.04;92298.00;4990543;28;20232;-80
2023/08/05 03:43:53;;;;;;;16.45;14.75;;;;;;;22.82;67.55;92308.22;4990906;28;20207;-80
2023/08/05 03:46:18;;;;;;;16.88;15.30;;;;;;;22.94;68.10;92307.25;4990477;28;20270;-80
2023/08/05 03:48:44;;;;;;;16.58;15.05;;;;;;;23.08;66.14;92294.84;4990666;28;20195;-81
2023/08/05 03:51:09;;;;;;;16.38;14.77;;;;;;;22.96;67.31;92310.28;5005509;28;20294;-79
2023/08/05 03:53:35;;;;;;;15.23;13.75;;;;;;;22.95;68.07;92293.56;4990997;28;20196;-79
2023/08/05 03:56:01;;;;;;;15.40;14.10;;;;;;;23.08;67.32;92296.78;4990351;28;20217;-80
2023/08/05 03:58:26;;;;;;;15.52;14.15;;;;;;;23.22;67.12;92300.34;4990734;28;20189;-80
2023/08/05 04:00:52;;;;;;;16.60;14.88;;;;;;;23.07;67.54;92297.88;4990331;28;20237;-81
2023/08/05 04:03:18;;;;;;;15.80;14.32;;;;;;;23.14;67.71;92297.97;4990235;28;20196;-80
2023/08/05 04:05:43;;;;;;;16.42;14.82;;;;;;;23.24;66.48;92303.44;4988990;28;20234;-80
2023/08/05 04:08:09;;;;;;;15.73;14.32;;;;;;;23.30;66.63;92314.56;4991215;28;20222;-80
2023/08/05 04:10:35;;;;;;;16.40;14.88;;;;;;;23.52;66.72;92308.31;4990311;28;20297;-80
2023/08/05 04:13:03;;;;;;;14.73;13.43;;;;;;;23.59;66.53;92289.75;4990317;28;20242;-79
2023/08/05 04:15:30;;;;;;;15.68;14.32;;;;;;;23.74;66.82;92296.75;4990021;28;20245;-80
2023/08/05 04:17:59;;;;;;;16.25;14.80;;;;;;;23.64;68.15;92292.09;4979396;28;20188;-82
2023/08/05 04:20:27;;;;;;;15.50;14.20;;;;;;;23.77;66.89;92302.13;4982157;28;20250;-82
2023/08/05 04:22:53;;;;;;;16.42;14.73;;;;;;;23.80;68.01;92307.88;5009831;28;20186;-82
2023/08/05 04:25:18;;;;;;;15.35;13.95;;;;;;;23.98;65.62;92308.81;5009717;28;20193;-82
2023/08/05 04:27:44;;;;;;;15.98;14.48;;;;;;;24.13;64.61;92305.13;5009788;28;20217;-83
2023/08/05 04:30:09;;;;;;;14.80;13.35;;;;;;;24.21;63.82;92293.38;5009154;28;20187;-80
2023/08/05 04:32:35;;;;;;;14.82;13.52;;;;;;;24.14;65.38;92296.00;5009508;28;20234;-80
2023/08/05 04:35:00;;;;;;;13.27;12.25;;;;;;;24.37;62.30;92296.56;5008864;28;20202;-78
2023/08/05 04:37:27;;;;;;;12.63;11.45;;;;;;;24.50;61.87;92297.78;5010066;28;20182;-81
2023/08/05 04:39:53;;;;;;;12.40;11.43;;;;;;;24.65;59.62;92305.53;5010105;28;20225;-81
2023/08/05 04:42:18;;;;;;;12.88;11.68;;;;;;;24.74;59.03;92308.66;5012765;28;20246;-80
2023/08/05 04:44:45;;;;;;;12.43;11.32;;;;;;;24.99;57.54;92303.44;5013365;28;20193;-80
2023/08/05 04:47:11;;;;;;;13.07;11.98;;;;;;;25.18;57.01;92300.47;5013832;28;20219;-80
2023/08/05 04:49:41;;;;;;;12.02;11.13;;;;;;;25.18;56.71;92297.81;5013151;28;20195;-80
2023/08/05 04:52:07;;;;;;;11.40;10.43;;;;;;;25.27;56.68;92292.88;5013358;28;20248;-80
2023/08/05 04:54:46;;;;;;;12.77;11.80;;;;;;;25.33;56.61;92294.06;5013477;28;20213;-81
2023/08/05 04:57:12;;;;;;;12.30;11.30;;;;;;;25.01;58.98;92298.50;5012770;28;20240;-79
2023/08/05 04:59:37;;;;;;;12.55;11.57;;;;;;;25.38;56.45;92304.41;5013389;28;20214;-81
2023/08/05 05:02:04;;;;;;;12.50;11.50;;;;;;;25.56;55.51;92297.19;5013100;28;20231;-80
2023/08/05 05:04:29;;;;;;;13.15;12.13;;;;;;;25.62;55.38;92305.63;5010505;28;20183;-72
2023/08/05 05:06:55;;;;;;;11.93;10.93;;;;;;;25.73;55.13;92293.03;5012886;28;20244;-71
2023/08/05 05:09:20;;;;;;;11.98;11.07;;;;;;;25.89;55.04;92301.47;5013079;28;20201;-71
2023/08/05 05:11:45;;;;;;;12.80;11.50;;;;;;;25.92;54.04;92304.16;5012463;28;20289;-69
2023/08/05 05:14:11;;;;;;;12.52;11.63;;;;;;;26.04;54.54;92303.81;5010461;28;20186;-74
2023/08/05 05:16:36;;;;;;;12.63;11.43;;;;;;;26.16;53.75;92300.78;5011909;28;20544;-74
2023/08/05 05:19:01;;;;;;;13.90;12.70;;;;;;;26.14;53.75;92303.06;5006883;28;20181;-74
2023/08/05 05:21:27;;;;;;;13.25;12.25;;;;;;;26.16;53.27;92300.78;5026243;28;20231;-74
2023/08/05 05:23:52;;;;;;;13.27;12.27;;;;;;;26.14;53.34;92292.34;5012291;28;20195;-73
2023/08/05 05:26:18;;;;;;;13.40;12.50;;;;;;;26.02;53.54;92273.22;5000973;28;20220;-73
2023/08/05 05:28:43;;;;;;;12.55;11.35;;;;;;;26.25;53.56;92295.81;4992330;28;20219;-76
2023/08/05 05:31:08;;;;;;;12.65;11.55;;;;;;;26.25;53.80;92306.50;4997939;28;20281;-75
2023/08/05 05:33:34;;;;;;;13.93;12.80;;;;;;;26.41;53.50;92314.16;5011840;28;20216;-75
2023/08/05 05:35:59;;;;;;;13.10;12.10;;;;;;;26.31;53.70;92304.97;5011065;28;20235;-74
2023/08/05 05:38:24;;;;;;;12.32;11.38;;;;;;;26.46;53.70;92309.16;5027075;28;20203;-74
2023/08/05 05:40:52;;;;;;;13.80;12.68;;;;;;;26.41;53.50;92304.19;5011423;28;20269;-74
2023/08/05 05:43:18;;;;;;;13.73;12.63;;;;;;;26.50;52.92;92307.28;5004799;28;20203;-73
2023/08/05 05:45:43;;;;;;;13.48;12.38;;;;;;;26.48;52.70;92317.59;5005855;28;20296;-74
2023/08/05 05:48:08;;;;;;;13.63;12.38;;;;;;;26.58;52.51;92316.06;4983720;28;20200;-73
2023/08/05 05:50:43;;;;;;;14.68;13.48;;;;;;;27.24;50.90;92317.09;4990716;28;20224;-74
2023/08/05 05:53:13;;;;;;;13.90;12.50;;;;;;;29.41;45.25;92301.34;4991156;28;20198;-75
2023/08/05 05:55:40;;;;;;;13.88;12.75;;;;;;;30.36;42.35;92310.88;4991336;28;20219;-74
2023/08/05 05:58:06;;;;;;;11.98;10.85;;;;;;;33.70;35.88;92324.22;4992169;28;20188;-74
2023/08/05 06:00:31;;;;;;;12.35;11.27;;;;;;;36.23;30.68;92326.88;4991060;28;20222;-74
2023/08/05 06:02:57;;;;;;;11.88;10.75;;;;;;;38.19;28.14;92336.34;4990797;28;20196;-74
2023/08/05 06:05:22;;;;;;;10.85;9.85;;;;;;;39.77;25.56;92339.69;4989471;28;20255;-74
2023/08/05 06:07:48;;;;;;;12.75;9.70;;;;;;;40.02;24.94;92339.16;4992263;28;20196;-74
2023/08/05 06:10:14;;;;;;;10.05;9.35;;;;;;;40.03;24.84;92346.16;4991771;28;20265;-76
2023/08/05 06:12:40;;;;;;;9.70;9.07;;;;;;;40.49;24.30;92349.94;4991888;28;20191;-76
2023/08/05 06:15:07;;;;;;;10.65;9.30;;;;;;;40.05;24.79;92337.47;4992596;28;20184;-74
2023/08/05 06:17:33;;;;;;;9.27;8.65;;;;;;;39.61;25.08;92331.91;5011072;28;20214;-74
2023/08/05 06:19:58;;;;;;;9.63;8.93;;;;;;;38.81;25.85;92331.13;5005215;28;20184;-74
2023/08/05 06:22:24;;;;;;;10.10;9.30;;;;;;;39.51;25.17;92323.00;5007959;28;20774;-74
2023/08/05 06:24:50;;;;;;;10.50;9.60;;;;;;;39.37;25.15;92320.97;5003777;28;20291;-70
2023/08/05 06:27:16;;;;;;;10.30;9.60;;;;;;;40.65;23.58;92332.28;5010689;28;20230;-73
2023/08/05 06:29:41;;;;;;;11.27;10.38;;;;;;;40.43;24.00;92324.47;5010195;28;20195;-69
2023/08/05 06:32:07;;;;;;;10.07;9.27;;;;;;;40.99;23.55;92326.09;5010778;28;20220;-68
2023/08/05 06:34:32;;;;;;;9.30;8.70;;;;;;;39.37;25.33;92307.28;5002703;28;20189;-68
2023/08/05 06:36:58;;;;;;;10.07;9.38;;;;;;;35.27;31.34;92277.13;5003346;28;20238;-67
2023/08/05 06:39:23;;;;;;;10.50;9.73;;;;;;;32.12;36.64;92276.78;5011391;28;20191;-68
2023/08/05 06:41:49;;;;;;;15.40;10.77;;;;;;;30.59;40.69;92270.47;5010539;28;20232;-70
2023/08/05 06:44:14;;;;;;;11.57;10.65;;;;;;;30.09;41.60;92264.34;5010945;28;20210;-69
2023/08/05 06:46:39;;;;;;;11.98;10.88;;;;;;;29.14;44.08;92247.50;5003246;28;21032;-70
2023/08/05 06:49:05;;;;;;;12.63;11.43;;;;;;;29.00;45.80;92254.91;5010533;28;20194;-71
2023/08/05 06:51:34;;;;;;;11.93;11.02;;;;;;;28.88;46.44;92258.13;5008138;28;20286;-70
2023/08/05 06:53:59;;;;;;;13.73;12.35;;;;;;;28.93;44.98;92231.59;5005858;28;20209;-69
2023/08/05 06:56:24;;;;;;;11.60;10.60;;;;;;;28.69;46.52;92235.28;5008813;28;20253;-70
2023/08/05 06:58:50;;;;;;;12.00;10.90;;;;;;;28.51;47.48;92234.72;4997148;28;20194;-70
2023/08/05 07:01:18;;;;;;;11.75;10.75;;;;;;;28.53;47.26;92227.00;5007789;28;20242;-69
2023/08/05 07:03:44;;;;;;;13.73;12.57;;;;;;;28.74;47.54;92221.41;5024650;28;20201;-70
2023/08/05 07:06:10;;;;;;;12.75;11.82;;;;;;;28.94;47.08;92224.25;5008166;28;20223;-69
2023/08/05 07:08:35;;;;;;;13.52;12.43;;;;;;;29.02;46.80;92223.78;5010396;28;20197;-68
2023/08/05 07:11:00;;;;;;;12.88;11.70;;;;;;;28.99;47.67;92221.91;5006746;28;20234;-72
2023/08/05 07:13:26;;;;;;;12.73;11.60;;;;;;;28.95;46.95;92223.84;5008504;28;20254;-74
2023/08/05 07:16:01;;;;;;;11.95;11.15;;;;;;;28.90;47.39;92223.56;5002987;28;20316;-72
2023/08/05 07:18:28;;;;;;;15.35;13.98;;;;;;;28.87;47.34;92235.88;4989192;28;20228;-72
2023/08/05 07:20:53;;;;;;;13.70;12.43;;;;;;;28.79;47.02;92233.66;4986259;28;20223;-72
2023/08/05 07:23:19;;;;;;;12.25;11.25;;;;;;;28.61;48.53;92225.03;4991083;28;20278;-70
2023/08/05 07:25:44;;;;;;;12.75;11.75;;;;;;;28.65;47.81;92215.75;4983224;28;20277;-70
2023/08/05 07:28:10;;;;;;;13.50;12.32;;;;;;;28.44;48.33;92205.19;4987067;28;20200;-70
2023/08/05 07:30:35;;;;;;;13.13;11.93;;;;;;;28.59;47.92;92206.63;4994195;28;20270;-72
2023/08/05 07:33:04;;;;;;;13.60;12.50;;;;;;;28.69;47.64;92213.78;5010431;28;20238;-71
2023/08/05 07:35:30;;;;;;;14.30;12.90;;;;;;;28.65;47.57;92201.56;5004508;28;20264;-71
2023/08/05 07:37:55;;;;;;;13.45;12.32;;;;;;;28.75;48.29;92217.56;5003158;28;20186;-72
2023/08/05 07:40:25;;;;;;;12.45;11.35;;;;;;;29.00;47.49;92220.75;5002991;28;20246;-72
2023/08/05 07:42:53;;;;;;;13.30;12.30;;;;;;;28.91;48.16;92209.72;5010588;28;20187;-71
2023/08/05 07:45:21;;;;;;;12.88;11.77;;;;;;;28.88;47.21;92210.50;5009784;28;20180;-75
2023/08/05 07:47:46;;;;;;;14.52;13.00;;;;;;;29.00;47.34;92193.84;5000676;28;20182;-72
2023/08/05 07:50:16;;;;;;;12.95;11.95;;;;;;;29.23;46.66;92196.66;5004951;28;20251;-73
2023/08/05 07:52:42;;;;;;;12.85;11.85;;;;;;;29.25;46.47;92191.66;5010247;28;20203;-70
2023/08/05 07:55:07;;;;;;;12.70;11.70;;;;;;;29.29;46.40;92200.41;5009428;28;20191;-70
2023/08/05 07:57:35;;;;;;;12.88;11.98;;;;;;;29.33;47.51;92198.47;5006075;28;20175;-69
2023/08/05 08:00:00;;;;;;;12.25;11.35;;;;;;;29.35;47.88;92201.53;5003422;28;20222;-70
2023/08/05 08:02:26;;;;;;;13.00;11.93;;;;;;;29.35;45.24;92204.22;4998971;28;20203;-69
2023/08/05 08:04:55;;;;;;;13.68;12.27;;;;;;;29.12;46.92;92197.97;5009820;28;20198;-71
2023/08/05 08:07:23;;;;;;;14.02;12.80;;;;;;;28.72;46.34;92196.84;4997069;28;20923;-69
2023/08/05 08:09:48;;;;;;;11.98;11.05;;;;;;;28.81;47.17;92207.16;5010291;28;20180;-73
2023/08/05 08:12:14;;;;;;;13.70;12.52;;;;;;;28.87;46.17;92190.19;5007070;28;20918;-71
2023/08/05 08:14:39;;;;;;;17.13;13.50;;;;;;;29.09;47.28;92204.91;5007052;28;20871;-70
2023/08/05 08:17:04;;;;;;;13.80;12.70;;;;;;;28.86;47.27;92201.34;4992291;28;20232;-71
2023/08/05 08:19:30;;;;;;;15.07;12.60;;;;;;;28.92;47.57;92189.72;4990881;28;20218;-70
2023/08/05 08:21:55;;;;;;;13.48;12.38;;;;;;;29.06;47.73;92189.56;4991649;28;20234;-70
2023/08/05 08:24:21;;;;;;;13.77;12.27;;;;;;;29.30;46.32;92198.50;4990516;28;20191;-71
2023/08/05 08:26:46;;;;;;;13.85;12.55;;;;;;;29.29;46.23;92186.97;4989623;28;20251;-71
2023/08/05 08:29:11;;;;;;;13.55;12.35;;;;;;;29.48;45.20;92199.78;4990296;28;20197;-72
2023/08/05 08:31:37;;;;;;;12.95;11.95;;;;;;;29.62;45.12;92186.13;4988790;28;20235;-72
2023/08/05 08:34:02;;;;;;;13.70;12.57;;;;;;;29.19;45.03;92189.81;4984971;28;20218;-68
2023/08/05 08:36:27;;;;;;;13.00;11.98;;;;;;;29.37;45.25;92188.41;4999558;28;20232;-71
2023/08/05 08:38:53;;;;;;;14.07;12.73;;;;;;;28.86;46.37;92187.91;4980940;28;20219;-69
2023/08/05 08:41:18;;;;;;;13.80;12.43;;;;;;;28.66;47.35;92197.69;4989248;28;20311;-70
2023/08/05 08:43:44;;;;;;;14.68;13.48;;;;;;;29.10;46.24;92184.16;4989764;28;20192;-71
2023/08/05 08:46:12;;;;;;;13.07;12.07;;;;;;;28.82;45.29;92147.63;4988846;28;20223;-73
2023/08/05 08:48:38;;;;;;;13.13;12.00;;;;;;;29.19;45.48;92193.28;4990134;28;20183;-70
2023/08/05 08:51:05;;;;;;;14.25;12.70;;;;;;;29.39;45.45;92190.69;4989425;28;20235;-74
2023/08/05 08:53:34;;;;;;;14.60;13.38;;;;;;;29.83;44.43;92176.25;4989990;28;20191;-74
2023/08/05 08:55:59;;;;;;;13.88;12.57;;;;;;;29.88;44.40;92189.25;4989530;28;20219;-74
2023/08/05 08:58:24;;;;;;;13.57;12.27;;;;;;;29.90;43.51;92186.91;4988825;28;20215;-72
2023/08/05 09:00:50;;;;;;;14.32;13.05;;;;;;;30.15;43.55;92196.09;4989090;28;20227;-74
2023/08/05 09:03:17;;;;;;;12.98;11.68;;;;;;;30.19;42.88;92194.13;4989988;28;20205;-74
2023/08/05 09:05:49;;;;;;;14.45;12.93;;;;;;;29.28;44.70;92179.31;4989091;28;20372;-74
2023/08/05 09:08:15;;;;;;;13.88;12.63;;;;;;;29.73;43.12;92192.16;4988961;28;20204;-74
2023/08/05 09:10:43;;;;;;;14.30;12.93;;;;;;;29.36;45.06;92176.13;4989233;28;20236;-74
2023/08/05 09:13:09;;;;;;;12.63;11.63;;;;;;;29.71;45.72;92169.53;4989797;28;20199;-73
2023/08/05 09:15:38;;;;;;;13.20;11.90;;;;;;;29.90;43.65;92178.84;4989579;28;20236;-73
2023/08/05 09:18:05;;;;;;;13.00;11.73;;;;;;;29.98;43.23;92167.53;4987983;28;20199;-75
2023/08/05 09:20:31;;;;;;;13.65;12.40;;;;;;;30.32;43.25;92178.19;4989284;28;20887;-73
2023/08/05 09:23:01;;;;;;;13.20;12.07;;;;;;;30.47;42.23;92177.50;4989027;28;20207;-73
2023/08/05 09:25:26;;;;;;;12.95;11.95;;;;;;;30.56;41.37;92175.03;4989398;28;20239;-73
2023/08/05 09:27:53;;;;;;;14.85;13.45;;;;;;;30.48;42.58;92170.94;5007109;28;20235;-76
2023/08/05 09:30:20;;;;;;;13.13;11.75;;;;;;;30.30;43.25;92177.81;4992853;28;20192;-72
2023/08/05 09:32:46;;;;;;;13.40;12.15;;;;;;;30.42;42.34;92179.91;4992534;28;20267;-72
2023/08/05 09:35:13;;;;;;;13.95;12.85;;;;;;;30.39;42.34;92176.13;4992215;28;20191;-72
2023/08/05 09:37:39;;;;;;;14.10;12.70;;;;;;;30.49;42.06;92169.03;4993007;28;20184;-72
2023/08/05 09:40:28;;;;;;;13.57;12.43;;;;;;;30.60;42.72;92169.59;4991298;28;20203;-72
2023/08/05 09:42:59;;;;;;;14.27;12.77;;;;;;;30.71;43.49;92165.50;4991605;28;20203;-73
2023/08/05 09:45:27;;;;;;;14.65;13.35;;;;;;;30.92;42.37;92158.97;4991496;28;20220;-73
2023/08/05 09:48:06;;;;;;;13.45;12.43;;;;;;;30.95;41.77;92164.31;4993188;28;20188;-72
2023/08/05 09:50:37;;;;;;;13.65;12.45;;;;;;;30.64;43.09;92159.50;4992302;28;20223;-71
2023/08/05 09:53:06;;;;;;;14.38;13.18;;;;;;;30.53;43.12;92164.31;4991432;28;20248;-72
2023/08/05 09:55:33;;;;;;;14.73;13.43;;;;;;;30.45;43.38;92158.28;4991270;28;20215;-72
2023/08/05 09:57:58;;;;;;;15.10;13.52;;;;;;;30.29;43.83;92155.50;4991774;28;20191;-73
2023/08/05 10:00:25;;;;;;;16.05;14.65;;;;;;;30.33;42.93;92155.44;4990173;28;20231;-72
2023/08/05 10:02:50;;;;;;;14.68;13.38;;;;;;;30.34;43.29;92151.56;4991157;28;20188;-73
2023/08/05 10:05:16;;;;;;;14.25;13.05;;;;;;;30.82;43.77;92160.69;4991902;28;20183;-72
2023/08/05 10:07:42;;;;;;;13.55;12.45;;;;;;;31.17;42.57;92160.00;4990720;28;20208;-73
2023/08/05 10:10:16;;;;;;;14.63;13.23;;;;;;;31.36;42.08;92166.56;4991108;28;20202;-74
2023/08/05 10:13:02;;;;;;;14.07;12.88;;;;;;;31.35;42.04;92154.25;4980367;28;20187;-73
2023/08/05 10:15:30;;;;;;;14.10;12.98;;;;;;;31.39;41.49;92154.16;4992123;28;20224;-71
2023/08/05 10:17:56;;;;;;;15.00;13.75;;;;;;;30.93;42.88;92147.78;4992687;28;20895;-71
2023/08/05 10:20:22;;;;;;;15.23;13.73;;;;;;;30.82;44.37;92143.78;4990805;28;20243;-77
2023/08/05 10:23:13;;;;;;;15.68;14.13;;;;;;;30.60;44.00;92145.34;4988195;28;20239;-72
2023/08/05 10:25:47;;;;;;;14.77;13.48;;;;;;;31.11;43.62;92148.16;4981502;28;20316;-72
2023/08/05 10:28:27;;;;;;;15.10;13.75;;;;;;;31.59;42.03;92158.34;4988954;28;20188;-72
2023/08/05 10:30:56;;;;;;;14.48;13.05;;;;;;;31.83;41.41;92148.94;4991240;28;20247;-71
2023/08/05 10:33:22;;;;;;;14.23;13.02;;;;;;;31.92;41.67;92151.84;4991210;28;20220;-73
2023/08/05 10:35:49;;;;;;;16.38;14.82;;;;;;;31.75;42.13;92149.50;4988796;28;20258;-70
2023/08/05 10:38:22;;;;;;;14.02;12.93;;;;;;;31.76;41.64;92146.38;5008539;28;20180;-73
2023/08/05 10:40:53;;;;;;;15.52;14.20;;;;;;;31.23;42.69;92136.75;5025752;28;20223;-73
2023/08/05 10:43:35;;;;;;;14.18;12.85;;;;;;;30.89;42.82;92135.53;5009512;28;20184;-73
2023/08/05 10:46:06;;;;;;;15.20;13.88;;;;;;;31.10;42.53;92129.69;5010367;28;20239;-72
2023/08/05 10:48:38;;;;;;;14.45;13.20;;;;;;;31.67;42.53;92131.94;5008490;28;20248;-74
2023/08/05 10:51:08;;;;;;;13.82;12.73;;;;;;;31.80;42.29;92130.84;5006972;28;20231;-73
2023/08/05 10:53:34;;;;;;;17.10;15.32;;;;;;;31.80;42.19;92128.16;5000045;28;20203;-73
2023/08/05 10:55:59;;;;;;;15.93;14.43;;;;;;;31.71;43.50;92127.22;5006319;28;20239;-73
2023/08/05 10:58:29;;;;;;;14.07;12.95;;;;;;;31.75;42.72;92111.72;5009663;28;20195;-73
2023/08/05 11:01:05;;;;;;;14.50;13.23;;;;;;;31.80;42.80;92111.94;5010359;28;20231;-72
2023/08/05 11:03:31;;;;;;;14.70;13.50;;;;;;;31.58;42.18;92116.34;5008107;28;20255;-73
2023/08/05 11:06:00;;;;;;;15.18;13.82;;;;;;;31.32;42.85;92097.69;5001855;28;20238;-73
2023/08/05 11:08:26;;;;;;;15.50;14.10;;;;;;;31.52;43.87;92098.38;5004195;28;20200;-72
2023/08/05 11:10:51;;;;;;;14.00;12.88;;;;;;;31.66;42.87;92106.88;5002338;28;20291;-73
2023/08/05 11:13:17;;;;;;;15.23;13.93;;;;;;;31.65;42.83;92104.59;4990859;28;20199;-72
2023/08/05 11:16:15;;;;;;;16.13;14.63;;;;;;;31.62;42.50;92103.53;4990372;28;20228;-73